Time;durP1;ratioP1;P1;durP2;ratioP2;P2;SDS_P1;SDS_P2;PMS_P1;PMS_P2;Temp;Humidity;BMP_temperature;BMP_pressure;BME280_temperature;BME280_humidity;BME280_pressure;Samples;Min_cycle;Max_cycle;Signal;HPM_P1;HPM_P2
2022/10/10 04:01:50;;;;;;;7.07;6.20;;;;;;;;;;5437269;22;20454;-91
2022/10/10 04:04:16;;;;;;;9.13;7.50;;;;;;;;;;5028861;28;20407;-91
2022/10/10 04:06:42;;;;;;;6.70;6.00;;;;;;;;;;5031227;28;20424;-91
2022/10/10 04:09:08;;;;;;;5.55;5.05;;;;;;;;;;5014601;28;20737;-91
2022/10/10 04:11:37;;;;;;;11.02;8.00;;;;;;;;;;5022988;28;20443;-91
2022/10/10 04:14:03;;;;;;;6.07;5.50;;;;;;;;;;5018233;28;20396;-91
2022/10/10 04:16:29;;;;;;;6.35;5.28;;;;;;;;;;5012456;28;20397;-91
2022/10/10 04:18:55;;;;;;;6.75;5.22;;;;;;;;;;5013723;28;20410;-91
2022/10/10 04:21:21;;;;;;;7.37;5.90;;;;;;;;;;5012254;28;20736;-92
2022/10/10 04:23:47;;;;;;;5.90;5.35;;;;;;;;;;5028084;28;20380;-91
2022/10/10 04:26:13;;;;;;;6.43;5.82;;;;;;;;;;5012657;28;20400;-91
2022/10/10 04:28:39;;;;;;;7.00;6.30;;;;;;;;;;5016357;28;20377;-92
2022/10/10 04:31:05;;;;;;;6.70;6.00;;;;;;;;;;5016262;28;20420;-91
2022/10/10 04:33:31;;;;;;;5.90;5.05;;;;;;;;;;5016162;28;20407;-91
2022/10/10 04:35:57;;;;;;;8.48;5.65;;;;;;;;;;5016199;28;20388;-91
2022/10/10 04:38:23;;;;;;;6.47;5.87;;;;;;;;;;5016035;28;20866;-92
2022/10/10 04:40:49;;;;;;;8.20;7.50;;;;;;;;;;5016025;28;20404;-91
2022/10/10 04:43:15;;;;;;;8.37;6.47;;;;;;;;;;5016151;28;20377;-93
2022/10/10 04:45:41;;;;;;;9.48;8.48;;;;;;;;;;5011872;28;20476;-91
2022/10/10 04:48:07;;;;;;;7.65;7.05;;;;;;;;;;5016092;28;20472;-90
2022/10/10 04:50:33;;;;;;;7.20;6.63;;;;;;;;;;5015770;28;20415;-91
2022/10/10 04:52:59;;;;;;;7.40;6.70;;;;;;;;;;5015805;28;20455;-91
2022/10/10 04:55:25;;;;;;;7.43;6.82;;;;;;;;;;5029662;28;20454;-91
2022/10/10 04:57:51;;;;;;;6.55;6.05;;;;;;;;;;5015796;28;20928;-91
2022/10/10 05:00:17;;;;;;;6.30;5.70;;;;;;;;;;5015773;28;20420;-91
2022/10/10 05:02:43;;;;;;;11.15;7.40;;;;;;;;;;5021978;28;20402;-91
2022/10/10 05:05:09;;;;;;;7.65;6.85;;;;;;;;;;5023216;28;20384;-91
2022/10/10 05:07:36;;;;;;;7.87;7.07;;;;;;;;;;5022198;28;20400;-92
2022/10/10 05:10:02;;;;;;;7.40;6.80;;;;;;;;;;5022766;28;20783;-91
2022/10/10 05:12:28;;;;;;;7.50;6.90;;;;;;;;;;5019651;28;20385;-90
2022/10/10 05:14:53;;;;;;;7.87;6.57;;;;;;;;;;5015328;28;20381;-92
2022/10/10 05:17:19;;;;;;;6.95;6.38;;;;;;;;;;5015322;28;20409;-91
2022/10/10 05:19:46;;;;;;;7.68;7.03;;;;;;;;;;5015158;28;20419;-92
2022/10/10 05:22:12;;;;;;;8.40;7.50;;;;;;;;;;5015399;28;20385;-91
2022/10/10 05:24:39;;;;;;;8.80;7.97;;;;;;;;;;5015243;28;20385;-90
2022/10/10 05:27:05;;;;;;;7.93;6.95;;;;;;;;;;5015110;28;20376;-91
2022/10/10 05:29:31;;;;;;;6.93;6.32;;;;;;;;;;5014500;28;20384;-90
2022/10/10 05:31:57;;;;;;;7.07;6.38;;;;;;;;;;4997339;28;20428;-91
2022/10/10 05:34:23;;;;;;;8.00;7.00;;;;;;;;;;5014966;28;20924;-90
2022/10/10 05:36:49;;;;;;;7.03;6.33;;;;;;;;;;5018876;28;20412;-90
2022/10/10 05:39:15;;;;;;;6.80;6.05;;;;;;;;;;5017239;28;20410;-89
2022/10/10 05:41:41;;;;;;;6.70;6.10;;;;;;;;;;5016121;28;20501;-91
2022/10/10 05:44:08;;;;;;;7.20;6.57;;;;;;;;;;5012627;28;20375;-89
2022/10/10 05:46:34;;;;;;;7.93;7.23;;;;;;;;;;5011177;28;20377;-89
2022/10/10 05:49:00;;;;;;;7.60;7.00;;;;;;;;;;5020451;28;20401;-89
2022/10/10 05:51:26;;;;;;;8.20;6.40;;;;;;;;;;5014872;28;20384;-91
2022/10/10 05:53:52;;;;;;;7.55;6.85;;;;;;;;;;5014241;28;20384;-91
2022/10/10 05:56:18;;;;;;;6.80;6.30;;;;;;;;;;5014293;28;20401;-92
2022/10/10 05:58:44;;;;;;;6.55;6.00;;;;;;;;;;5016014;28;20460;-91
2022/10/10 06:01:10;;;;;;;6.60;6.10;;;;;;;;;;5014547;28;20432;-91
2022/10/10 06:03:36;;;;;;;6.90;6.30;;;;;;;;;;5014904;28;20385;-92
2022/10/10 06:06:03;;;;;;;7.05;6.20;;;;;;;;;;5013938;28;20389;-91
2022/10/10 06:08:30;;;;;;;6.70;6.10;;;;;;;;;;5014803;28;20381;-90
2022/10/10 06:11:00;;;;;;;6.75;6.07;;;;;;;;;;5017186;28;20382;-90
2022/10/10 06:13:26;;;;;;;6.97;6.38;;;;;;;;;;5013892;28;20389;-91
2022/10/10 06:15:52;;;;;;;9.30;8.27;;;;;;;;;;5011301;28;20399;-92
2022/10/10 06:18:18;;;;;;;11.82;10.02;;;;;;;;;;5008927;28;20418;-90
2022/10/10 06:20:44;;;;;;;10.27;9.20;;;;;;;;;;5011262;28;20417;-92
2022/10/10 06:23:10;;;;;;;7.32;6.72;;;;;;;;;;5012150;28;20442;-89
2022/10/10 06:25:36;;;;;;;7.95;7.15;;;;;;;;;;5010720;28;20391;-90
2022/10/10 06:28:03;;;;;;;7.60;6.30;;;;;;;;;;5012449;28;20389;-91
2022/10/10 06:30:29;;;;;;;6.95;6.30;;;;;;;;;;5010996;28;20435;-91
2022/10/10 06:32:56;;;;;;;7.32;6.32;;;;;;;;;;5012285;28;20484;-91
2022/10/10 06:35:22;;;;;;;8.48;7.50;;;;;;;;;;5025189;28;20553;-91
2022/10/10 06:37:48;;;;;;;7.53;6.72;;;;;;;;;;5013711;28;20742;-91
2022/10/10 06:40:14;;;;;;;9.98;8.52;;;;;;;;;;5013600;28;20409;-90
2022/10/10 06:42:40;;;;;;;8.57;7.35;;;;;;;;;;4994273;28;20385;-93
2022/10/10 06:45:07;;;;;;;7.40;6.68;;;;;;;;;;5021026;28;20815;-92
2022/10/10 06:47:33;;;;;;;7.18;6.55;;;;;;;;;;5013862;28;20381;-92
2022/10/10 06:49:59;;;;;;;7.60;6.90;;;;;;;;;;5013296;28;20478;-92
2022/10/10 06:52:25;;;;;;;7.22;6.50;;;;;;;;;;5013231;28;20412;-92
2022/10/10 06:54:51;;;;;;;7.20;6.60;;;;;;;;;;5013608;28;20468;-91
2022/10/10 06:57:17;;;;;;;7.83;7.20;;;;;;;;;;5020251;28;20415;-92
2022/10/10 06:59:43;;;;;;;8.40;7.57;;;;;;;;;;5020965;28;20498;-92
2022/10/10 07:02:12;;;;;;;7.93;7.13;;;;;;;;;;5027291;28;20412;-92
2022/10/10 07:04:38;;;;;;;7.90;7.18;;;;;;;;;;5018655;28;20395;-92
2022/10/10 07:07:04;;;;;;;8.20;7.40;;;;;;;;;;5016203;28;20385;-92
2022/10/10 07:09:30;;;;;;;11.13;10.02;;;;;;;;;;5013637;28;20932;-91
2022/10/10 07:11:56;;;;;;;9.25;8.35;;;;;;;;;;5013344;28;20416;-92
2022/10/10 07:14:23;;;;;;;9.05;8.15;;;;;;;;;;5028059;28;20385;-92
2022/10/10 07:16:49;;;;;;;17.73;12.38;;;;;;;;;;5013347;28;20870;-92
2022/10/10 07:19:15;;;;;;;12.32;10.50;;;;;;;;;;5014421;28;20413;-92
2022/10/10 07:21:41;;;;;;;8.30;7.40;;;;;;;;;;5020739;28;20379;-92
2022/10/10 07:24:07;;;;;;;8.03;7.17;;;;;;;;;;5019700;28;20460;-93
2022/10/10 07:26:36;;;;;;;14.13;10.18;;;;;;;;;;5027080;28;20381;-92
2022/10/10 07:29:02;;;;;;;10.80;9.48;;;;;;;;;;5023885;28;20387;-93
2022/10/10 07:31:28;;;;;;;10.82;9.93;;;;;;;;;;5014839;28;20385;-92
2022/10/10 07:33:55;;;;;;;8.33;7.63;;;;;;;;;;5023418;28;20394;-92
2022/10/10 07:36:21;;;;;;;9.95;7.93;;;;;;;;;;5014142;28;20405;-92
2022/10/10 07:38:53;;;;;;;8.52;7.70;;;;;;;;;;5013034;28;20377;-92
2022/10/10 07:41:20;;;;;;;8.18;7.45;;;;;;;;;;5012211;28;20404;-92
2022/10/10 07:43:46;;;;;;;11.15;9.93;;;;;;;;;;5019259;28;20848;-91
2022/10/10 07:46:16;;;;;;;10.45;9.30;;;;;;;;;;5011661;28;20973;-92
2022/10/10 07:48:42;;;;;;;15.18;12.70;;;;;;;;;;5005211;28;20739;-91
2022/10/10 07:51:08;;;;;;;9.40;8.50;;;;;;;;;;4994606;28;20862;-94
2022/10/10 07:53:34;;;;;;;9.00;8.10;;;;;;;;;;5012456;28;20384;-92
2022/10/10 07:56:03;;;;;;;9.00;8.20;;;;;;;;;;5021703;28;20498;-92
2022/10/10 07:58:29;;;;;;;8.88;7.95;;;;;;;;;;5020804;28;20443;-91
2022/10/10 08:01:01;;;;;;;14.15;11.38;;;;;;;;;;5012512;28;20428;-92
2022/10/10 08:03:27;;;;;;;9.93;8.93;;;;;;;;;;5012523;28;20401;-92
2022/10/10 08:05:53;;;;;;;14.90;11.23;;;;;;;;;;5012530;28;20392;-92
2022/10/10 08:08:19;;;;;;;19.40;15.93;;;;;;;;;;5011800;28;20384;-93
2022/10/10 08:10:45;;;;;;;12.53;10.93;;;;;;;;;;4988292;28;20918;-91
2022/10/10 08:13:11;;;;;;;21.50;16.30;;;;;;;;;;5006596;28;20393;-93
2022/10/10 08:15:38;;;;;;;27.05;19.92;;;;;;;;;;5004980;28;20475;-94
2022/10/10 08:18:05;;;;;;;13.40;11.77;;;;;;;;;;5027326;28;20389;-94
2022/10/10 08:20:31;;;;;;;11.90;10.77;;;;;;;;;;5023780;28;20464;-93
2022/10/10 08:22:57;;;;;;;13.47;11.60;;;;;;;;;;5015748;28;20910;-92
2022/10/10 08:25:23;;;;;;;13.20;11.90;;;;;;;;;;5001905;28;20495;-90
2022/10/10 08:27:49;;;;;;;14.20;12.90;;;;;;;;;;5009739;28;20397;-90
2022/10/10 08:30:15;;;;;;;14.48;13.27;;;;;;;;;;5009794;28;20936;-93
2022/10/10 08:32:42;;;;;;;15.57;14.10;;;;;;;;;;5008303;28;20926;-90
2022/10/10 08:35:08;;;;;;;18.38;16.48;;;;;;;;;;5009415;28;20407;-90
2022/10/10 08:37:34;;;;;;;17.67;15.10;;;;;;;;;;5011862;28;20393;-92
2022/10/10 08:40:00;;;;;;;17.43;15.73;;;;;;;;;;5011944;28;20485;-92
2022/10/10 08:42:36;;;;;;;17.17;15.45;;;;;;;;;;5012058;28;20392;-91
2022/10/10 08:45:04;;;;;;;16.95;15.25;;;;;;;;;;5008628;28;20389;-93
2022/10/10 08:47:43;;;;;;;17.88;15.98;;;;;;;;;;5012040;28;20381;-92
2022/10/10 08:50:09;;;;;;;17.55;15.95;;;;;;;;;;5012037;28;20392;-91
2022/10/10 08:52:45;;;;;;;17.03;15.30;;;;;;;;;;5012027;28;20577;-92
2022/10/10 08:55:22;;;;;;;16.00;14.38;;;;;;;;;;5011953;28;20411;-93
2022/10/10 08:57:54;;;;;;;18.65;16.73;;;;;;;;;;5012203;28;20377;-92
2022/10/10 09:00:22;;;;;;;17.92;15.77;;;;;;;;;;4994896;28;20488;-92
2022/10/10 09:02:56;;;;;;;17.08;15.38;;;;;;;;;;5011957;28;20724;-91
2022/10/10 09:05:41;;;;;;;15.45;14.02;;;;;;;;;;5013874;28;20464;-93
2022/10/10 09:08:27;;;;;;;18.10;16.17;;;;;;;;;;5015534;28;20977;-91
2022/10/10 09:10:57;;;;;;;17.88;16.00;;;;;;;;;;4985173;28;20917;-91
2022/10/10 09:14:02;;;;;;;18.33;15.80;;;;;;;;;;5015485;28;20377;-90
2022/10/10 09:16:36;;;;;;;15.90;14.30;;;;;;;;;;4955148;28;20930;-90
2022/10/10 09:19:02;;;;;;;15.90;14.32;;;;;;;;;;4958841;28;20414;-91
2022/10/10 09:21:31;;;;;;;19.20;15.90;;;;;;;;;;4954978;28;20741;-92
2022/10/10 09:24:16;;;;;;;16.83;14.70;;;;;;;;;;4957149;28;20575;-91
2022/10/10 09:26:46;;;;;;;16.60;14.90;;;;;;;;;;4956353;28;20392;-92
2022/10/10 09:29:24;;;;;;;15.88;14.48;;;;;;;;;;4954796;28;20455;-91
2022/10/10 09:31:53;;;;;;;15.20;13.80;;;;;;;;;;4954773;28;20394;-92
2022/10/10 09:34:26;;;;;;;16.15;14.55;;;;;;;;;;4954802;28;20401;-91
2022/10/10 09:36:53;;;;;;;16.98;15.15;;;;;;;;;;4954694;28;20923;-92
2022/10/10 09:39:37;;;;;;;15.30;14.00;;;;;;;;;;4954440;28;20457;-92
2022/10/10 09:42:08;;;;;;;15.97;14.37;;;;;;;;;;4955033;28;20386;-92
2022/10/10 09:44:34;;;;;;;15.93;14.33;;;;;;;;;;4940886;29;20914;-91
2022/10/10 09:47:00;;;;;;;16.48;14.93;;;;;;;;;;4963417;28;20385;-92
2022/10/10 09:49:26;;;;;;;16.70;14.98;;;;;;;;;;4995729;28;20381;-91
2022/10/10 09:51:52;;;;;;;16.15;14.65;;;;;;;;;;4997490;28;20389;-92
2022/10/10 09:54:19;;;;;;;16.33;14.45;;;;;;;;;;4997019;28;20408;-93
2022/10/10 09:56:45;;;;;;;16.27;14.77;;;;;;;;;;4997076;28;20384;-93
2022/10/10 09:59:30;;;;;;;15.20;13.75;;;;;;;;;;4997410;28;20413;-90
2022/10/10 10:02:01;;;;;;;16.53;13.60;;;;;;;;;;5014338;28;20481;-89
2022/10/10 10:04:31;;;;;;;15.43;13.73;;;;;;;;;;4996247;28;20481;-88
2022/10/10 10:07:23;;;;;;;14.63;13.20;;;;;;;;;;4997290;28;20423;-89
2022/10/10 10:09:50;;;;;;;23.83;15.40;;;;;;;;;;4992107;28;20543;-90
2022/10/10 10:12:19;;;;;;;17.80;14.63;;;;;;;;;;5001950;28;20475;-88
2022/10/10 10:14:45;;;;;;;14.90;13.40;;;;;;;;;;5014185;28;20443;-87
2022/10/10 10:17:14;;;;;;;15.32;13.65;;;;;;;;;;5012987;28;20399;-87
2022/10/10 10:19:42;;;;;;;14.18;12.85;;;;;;;;;;5014124;28;20412;-88
2022/10/10 10:22:25;;;;;;;14.88;13.27;;;;;;;;;;5003302;28;20388;-88
2022/10/10 10:24:51;;;;;;;14.23;12.98;;;;;;;;;;5013997;28;20396;-86
2022/10/10 10:27:18;;;;;;;13.80;12.53;;;;;;;;;;5013934;28;20392;-87
2022/10/10 10:29:50;;;;;;;13.40;12.20;;;;;;;;;;5014262;28;20392;-87
2022/10/10 10:32:28;;;;;;;14.33;12.93;;;;;;;;;;5013782;28;20389;-86
2022/10/10 10:34:53;;;;;;;12.82;11.63;;;;;;;;;;5013893;28;20385;-87
2022/10/10 10:37:39;;;;;;;13.18;11.80;;;;;;;;;;5005341;28;20409;-88
2022/10/10 10:40:07;;;;;;;12.87;11.73;;;;;;;;;;5012126;28;20514;-87
2022/10/10 10:42:44;;;;;;;13.50;11.63;;;;;;;;;;4998683;28;20426;-86
2022/10/10 10:45:10;;;;;;;13.55;11.88;;;;;;;;;;4995942;28;20386;-87
2022/10/10 10:47:36;;;;;;;12.77;11.45;;;;;;;;;;4994043;28;20374;-87
2022/10/10 10:50:21;;;;;;;14.27;11.85;;;;;;;;;;4999928;28;20388;-88
2022/10/10 10:52:47;;;;;;;13.70;11.82;;;;;;;;;;5011352;28;20401;-87
2022/10/10 10:55:36;;;;;;;13.52;11.50;;;;;;;;;;5006710;28;20402;-88
2022/10/10 10:58:11;;;;;;;12.23;11.13;;;;;;;;;;5003023;28;20515;-88
2022/10/10 11:00:44;;;;;;;13.50;12.23;;;;;;;;;;5004665;28;20414;-87
2022/10/10 11:03:19;;;;;;;17.30;13.30;;;;;;;;;;5005971;28;20490;-88
2022/10/10 11:05:47;;;;;;;19.13;13.10;;;;;;;;;;5013280;28;20385;-89
2022/10/10 11:08:31;;;;;;;12.52;11.20;;;;;;;;;;5012942;28;20881;-88
2022/10/10 11:10:57;;;;;;;12.15;10.95;;;;;;;;;;5002102;28;20465;-88
2022/10/10 11:13:46;;;;;;;14.07;10.38;;;;;;;;;;5009778;28;20471;-89
2022/10/10 11:16:19;;;;;;;10.77;9.88;;;;;;;;;;5004969;28;20385;-88
2022/10/10 11:19:01;;;;;;;10.87;9.80;;;;;;;;;;4993544;28;20399;-88
2022/10/10 11:21:30;;;;;;;10.03;9.10;;;;;;;;;;5012733;28;20430;-87
2022/10/10 11:24:00;;;;;;;12.93;10.25;;;;;;;;;;5020157;28;20412;-86
2022/10/10 11:26:29;;;;;;;11.52;10.43;;;;;;;;;;5013106;28;20377;-86
2022/10/10 11:28:58;;;;;;;11.40;10.25;;;;;;;;;;5012404;28;20777;-86
2022/10/10 11:31:31;;;;;;;11.60;10.43;;;;;;;;;;5012702;28;20385;-87
2022/10/10 11:34:00;;;;;;;12.77;11.48;;;;;;;;;;4995171;28;20866;-86
2022/10/10 11:36:28;;;;;;;10.73;9.73;;;;;;;;;;5012793;28;20389;-87
2022/10/10 11:38:57;;;;;;;11.70;10.50;;;;;;;;;;5012643;28;20385;-87
2022/10/10 11:41:23;;;;;;;11.02;9.48;;;;;;;;;;5012565;28;20381;-87
2022/10/10 11:43:54;;;;;;;9.82;8.82;;;;;;;;;;5012582;28;20407;-86
2022/10/10 11:46:55;;;;;;;9.45;8.52;;;;;;;;;;5002010;28;20373;-85
2022/10/10 11:49:27;;;;;;;9.30;8.40;;;;;;;;;;4930022;29;20398;-87
2022/10/10 11:52:11;;;;;;;9.77;8.75;;;;;;;;;;4992996;28;20391;-87
2022/10/10 11:54:40;;;;;;;9.10;8.20;;;;;;;;;;5008371;28;20851;-87
2022/10/10 11:57:13;;;;;;;9.95;8.20;;;;;;;;;;5006866;28;20763;-87
2022/10/10 11:59:44;;;;;;;8.27;7.47;;;;;;;;;;5010357;28;20936;-87
2022/10/10 12:02:17;;;;;;;10.00;9.07;;;;;;;;;;5008564;28;20394;-88
2022/10/10 12:04:43;;;;;;;14.23;11.88;;;;;;;;;;5010758;28;20911;-87
2022/10/10 12:07:18;;;;;;;9.95;8.85;;;;;;;;;;5012103;28;20388;-87
2022/10/10 12:09:46;;;;;;;9.82;8.25;;;;;;;;;;5011301;28;20391;-87
2022/10/10 12:12:20;;;;;;;8.00;7.30;;;;;;;;;;5011208;28;20880;-87
2022/10/10 12:14:52;;;;;;;7.63;6.93;;;;;;;;;;5005967;28;20394;-88
2022/10/10 12:17:20;;;;;;;8.73;7.75;;;;;;;;;;5011529;28;20377;-87
2022/10/10 12:19:48;;;;;;;7.85;7.05;;;;;;;;;;5011198;28;20555;-87
2022/10/10 12:22:27;;;;;;;8.88;7.63;;;;;;;;;;5012055;28;20428;-88
2022/10/10 12:25:12;;;;;;;10.00;7.83;;;;;;;;;;5005364;28;20909;-88
2022/10/10 12:27:43;;;;;;;8.50;7.75;;;;;;;;;;5011786;28;20376;-88
2022/10/10 12:30:09;;;;;;;9.23;8.25;;;;;;;;;;5012056;28;20388;-89
2022/10/10 12:32:41;;;;;;;9.93;8.80;;;;;;;;;;5011998;28;20380;-89
2022/10/10 12:35:37;;;;;;;8.95;8.05;;;;;;;;;;5011420;28;20423;-89
2022/10/10 12:38:10;;;;;;;8.95;7.93;;;;;;;;;;4991309;28;20404;-89
2022/10/10 12:40:56;;;;;;;8.75;7.32;;;;;;;;;;5011822;28;21001;-88
2022/10/10 12:43:25;;;;;;;7.50;6.90;;;;;;;;;;5001729;28;20949;-89
2022/10/10 12:45:55;;;;;;;8.00;6.80;;;;;;;;;;5015685;28;20381;-88
2022/10/10 12:48:21;;;;;;;9.20;7.15;;;;;;;;;;5015783;28;20384;-88
2022/10/10 12:50:58;;;;;;;9.32;7.68;;;;;;;;;;5015861;28;20388;-88
2022/10/10 12:53:26;;;;;;;10.38;7.85;;;;;;;;;;5015670;28;20770;-89
2022/10/10 12:56:00;;;;;;;15.25;6.95;;;;;;;;;;5017768;28;20401;-89
2022/10/10 12:58:30;;;;;;;8.38;6.80;;;;;;;;;;5015826;28;20850;-89
2022/10/10 13:00:58;;;;;;;7.43;6.15;;;;;;;;;;5015435;28;20420;-88
2022/10/10 13:03:31;;;;;;;7.40;6.60;;;;;;;;;;5015546;28;20421;-89
2022/10/10 13:06:02;;;;;;;8.07;6.10;;;;;;;;;;5015481;28;20466;-88
2022/10/10 13:08:28;;;;;;;7.07;6.20;;;;;;;;;;5015488;28;20871;-88
2022/10/10 13:11:07;;;;;;;7.43;6.30;;;;;;;;;;5014469;28;23692;-88
2022/10/10 13:13:33;;;;;;;9.65;6.60;;;;;;;;;;5015253;28;20487;-88
2022/10/10 13:16:04;;;;;;;8.50;6.43;;;;;;;;;;5015479;28;20384;-88
2022/10/10 13:18:49;;;;;;;6.97;6.35;;;;;;;;;;5015277;28;20385;-88
2022/10/10 13:21:18;;;;;;;6.72;6.03;;;;;;;;;;5015076;28;20878;-89
2022/10/10 13:23:45;;;;;;;6.88;5.80;;;;;;;;;;5015037;28;20720;-88
2022/10/10 13:26:31;;;;;;;9.65;7.35;;;;;;;;;;5015091;28;20377;-89
2022/10/10 13:29:00;;;;;;;8.85;6.32;;;;;;;;;;5015174;28;20389;-88
2022/10/10 13:31:26;;;;;;;6.28;5.68;;;;;;;;;;5014883;28;20858;-89
2022/10/10 13:34:06;;;;;;;8.70;6.07;;;;;;;;;;5014857;28;20393;-89
2022/10/10 13:36:32;;;;;;;7.63;5.40;;;;;;;;;;5014915;28;20774;-89
2022/10/10 13:38:59;;;;;;;7.18;6.07;;;;;;;;;;5014993;28;20380;-89
2022/10/10 13:41:26;;;;;;;8.40;5.80;;;;;;;;;;5014669;28;20467;-88
2022/10/10 13:43:53;;;;;;;6.18;5.57;;;;;;;;;;5014814;28;20389;-89
2022/10/10 13:46:33;;;;;;;7.00;5.82;;;;;;;;;;5014686;28;20388;-88
2022/10/10 13:48:59;;;;;;;7.55;6.00;;;;;;;;;;5014835;28;20376;-88
2022/10/10 13:51:44;;;;;;;7.75;5.70;;;;;;;;;;5016666;28;20750;-88
2022/10/10 13:54:37;;;;;;;6.00;5.40;;;;;;;;;;5014602;28;20381;-88
2022/10/10 13:57:03;;;;;;;7.35;5.72;;;;;;;;;;5009198;28;20870;-87
2022/10/10 13:59:30;;;;;;;6.55;5.25;;;;;;;;;;5014381;28;20496;-88
2022/10/10 14:02:00;;;;;;;6.57;5.40;;;;;;;;;;5014291;28;20396;-88
2022/10/10 14:04:38;;;;;;;6.40;5.70;;;;;;;;;;5014398;28;20447;-88
2022/10/10 14:07:11;;;;;;;7.55;5.20;;;;;;;;;;5013794;28;20385;-88
2022/10/10 14:09:50;;;;;;;7.30;5.15;;;;;;;;;;5013474;28;20471;-90
2022/10/10 14:12:28;;;;;;;6.75;5.90;;;;;;;;;;5002180;28;20381;-88
2022/10/10 14:14:56;;;;;;;8.45;5.80;;;;;;;;;;5014117;28;20381;-88
2022/10/10 14:17:22;;;;;;;8.68;5.95;;;;;;;;;;5014473;28;20738;-88
2022/10/10 14:19:49;;;;;;;7.65;5.40;;;;;;;;;;5014202;28;20462;-89
2022/10/10 14:22:15;;;;;;;6.15;4.85;;;;;;;;;;5013344;28;20467;-87
2022/10/10 14:24:41;;;;;;;8.75;4.30;;;;;;;;;;5013848;28;20380;-88
2022/10/10 14:27:36;;;;;;;6.60;4.57;;;;;;;;;;5013205;28;20385;-89
2022/10/10 14:30:02;;;;;;;8.10;4.90;;;;;;;;;;4996908;28;20398;-89
2022/10/10 14:32:28;;;;;;;7.53;4.80;;;;;;;;;;5013724;28;20446;-88
2022/10/10 14:34:54;;;;;;;5.97;5.05;;;;;;;;;;5013869;28;20393;-89
2022/10/10 14:37:25;;;;;;;7.57;5.05;;;;;;;;;;5013771;28;20396;-88
2022/10/10 14:39:51;;;;;;;8.07;4.93;;;;;;;;;;5013131;28;20509;-88
2022/10/10 14:42:18;;;;;;;5.95;4.70;;;;;;;;;;5013448;28;20380;-88
2022/10/10 14:44:44;;;;;;;5.63;4.53;;;;;;;;;;5013603;28;20392;-89
2022/10/10 14:47:14;;;;;;;6.88;4.65;;;;;;;;;;5013606;28;20385;-88
2022/10/10 14:49:40;;;;;;;5.85;4.22;;;;;;;;;;5013489;28;20381;-88
2022/10/10 14:52:07;;;;;;;6.53;5.03;;;;;;;;;;5013549;28;20384;-88
2022/10/10 14:54:33;;;;;;;7.35;4.55;;;;;;;;;;5013455;28;20789;-90
2022/10/10 14:56:59;;;;;;;8.48;6.32;;;;;;;;;;5012771;28;20389;-88
2022/10/10 14:59:25;;;;;;;7.22;5.00;;;;;;;;;;5012980;28;20404;-89
2022/10/10 15:01:51;;;;;;;5.90;5.17;;;;;;;;;;5012631;28;20411;-89
2022/10/10 15:04:17;;;;;;;5.43;4.90;;;;;;;;;;5012585;28;20385;-89
2022/10/10 15:06:43;;;;;;;6.93;4.80;;;;;;;;;;5012874;28;20492;-89
2022/10/10 15:09:10;;;;;;;6.35;4.95;;;;;;;;;;5013164;28;20868;-89
2022/10/10 15:11:36;;;;;;;7.82;6.55;;;;;;;;;;5012569;28;20458;-89
2022/10/10 15:14:02;;;;;;;5.20;4.47;;;;;;;;;;5012666;28;20396;-89
2022/10/10 15:16:28;;;;;;;6.47;4.57;;;;;;;;;;5011976;28;20381;-89
2022/10/10 15:18:54;;;;;;;8.02;4.68;;;;;;;;;;5011920;28;20373;-88
2022/10/10 15:21:20;;;;;;;8.48;4.60;;;;;;;;;;5012193;28;20377;-89
2022/10/10 15:23:46;;;;;;;5.45;4.22;;;;;;;;;;5012512;28;20396;-89
2022/10/10 15:26:12;;;;;;;4.83;4.40;;;;;;;;;;5011747;28;20393;-88
2022/10/10 15:28:38;;;;;;;7.20;4.50;;;;;;;;;;5012104;28;20476;-88
2022/10/10 15:31:04;;;;;;;8.30;4.80;;;;;;;;;;5008123;28;20393;-90
2022/10/10 15:33:30;;;;;;;6.10;4.22;;;;;;;;;;4999113;28;20485;-89
2022/10/10 15:36:00;;;;;;;7.25;4.60;;;;;;;;;;4999393;28;20372;-88
2022/10/10 15:38:27;;;;;;;6.53;4.33;;;;;;;;;;5012352;28;20388;-89
2022/10/10 15:41:00;;;;;;;9.68;4.57;;;;;;;;;;5012480;28;20440;-89
2022/10/10 15:43:26;;;;;;;5.93;4.80;;;;;;;;;;5013006;28;20384;-87
2022/10/10 15:45:53;;;;;;;7.40;4.40;;;;;;;;;;5012531;28;20385;-87
2022/10/10 15:48:20;;;;;;;6.37;4.23;;;;;;;;;;5012113;28;20419;-89
2022/10/10 15:50:46;;;;;;;5.82;3.83;;;;;;;;;;4988717;28;20902;-90
2022/10/10 15:53:12;;;;;;;5.25;4.07;;;;;;;;;;5013078;28;20408;-89
2022/10/10 15:55:45;;;;;;;6.55;4.38;;;;;;;;;;5012967;28;20855;-89
2022/10/10 15:58:11;;;;;;;6.95;4.05;;;;;;;;;;5012644;28;20443;-89
2022/10/10 16:00:38;;;;;;;5.28;3.95;;;;;;;;;;5013950;28;20420;-88
2022/10/10 16:03:04;;;;;;;6.18;4.43;;;;;;;;;;5018070;28;20501;-89
2022/10/10 16:05:31;;;;;;;6.25;4.30;;;;;;;;;;5012425;28;20393;-90
2022/10/10 16:07:57;;;;;;;6.18;4.28;;;;;;;;;;5012388;28;20412;-88
2022/10/10 16:10:23;;;;;;;4.17;3.77;;;;;;;;;;5012319;28;20483;-89
2022/10/10 16:12:49;;;;;;;5.25;4.30;;;;;;;;;;4995041;28;20468;-87
2022/10/10 16:15:15;;;;;;;5.30;4.80;;;;;;;;;;5015930;28;20741;-88
2022/10/10 16:17:41;;;;;;;5.35;4.75;;;;;;;;;;5016529;28;20384;-89
2022/10/10 16:20:07;;;;;;;6.25;4.82;;;;;;;;;;5015608;28;20420;-88
2022/10/10 16:22:33;;;;;;;5.93;4.70;;;;;;;;;;5016055;28;20392;-88
2022/10/10 16:24:59;;;;;;;4.72;4.30;;;;;;;;;;5016083;28;20480;-89
2022/10/10 16:27:25;;;;;;;5.43;4.60;;;;;;;;;;5016204;28;20384;-89
2022/10/10 16:29:51;;;;;;;8.48;4.75;;;;;;;;;;5014404;28;20715;-89
2022/10/10 16:32:17;;;;;;;5.20;4.30;;;;;;;;;;5016031;28;20442;-90
2022/10/10 16:34:43;;;;;;;7.07;4.00;;;;;;;;;;5015735;28;20482;-87
2022/10/10 16:37:09;;;;;;;5.87;3.90;;;;;;;;;;5016040;28;20389;-87
2022/10/10 16:39:36;;;;;;;6.15;3.78;;;;;;;;;;5015895;28;20900;-91
2022/10/10 16:42:02;;;;;;;5.93;4.23;;;;;;;;;;5015937;28;20481;-89
2022/10/10 16:44:28;;;;;;;4.43;3.80;;;;;;;;;;5015876;28;20389;-89
2022/10/10 16:46:54;;;;;;;6.05;4.05;;;;;;;;;;5015848;28;20381;-87
2022/10/10 16:49:22;;;;;;;8.73;3.97;;;;;;;;;;5015812;28;20404;-88
2022/10/10 16:51:48;;;;;;;6.55;3.50;;;;;;;;;;5015698;28;20415;-89
2022/10/10 16:54:14;;;;;;;5.57;4.38;;;;;;;;;;5015683;28;20542;-87
2022/10/10 16:56:40;;;;;;;6.13;4.22;;;;;;;;;;5015645;28;20789;-88
2022/10/10 16:59:07;;;;;;;5.40;4.07;;;;;;;;;;5015575;28;20389;-88
2022/10/10 17:01:33;;;;;;;4.40;4.00;;;;;;;;;;5015295;28;20396;-88
2022/10/10 17:04:00;;;;;;;7.13;3.90;;;;;;;;;;5015596;28;20388;-86
2022/10/10 17:06:26;;;;;;;6.40;4.13;;;;;;;;;;5015016;28;20467;-89
2022/10/10 17:08:53;;;;;;;6.25;3.90;;;;;;;;;;5013942;28;20385;-88
2022/10/10 17:11:20;;;;;;;4.40;4.00;;;;;;;;;;5002283;28;20986;-88
2022/10/10 17:13:46;;;;;;;5.35;4.72;;;;;;;;;;5003729;28;20398;-88
2022/10/10 17:16:15;;;;;;;6.38;5.78;;;;;;;;;;5003882;28;20385;-89
2022/10/10 17:18:41;;;;;;;5.53;5.03;;;;;;;;;;5015244;28;20450;-89
2022/10/10 17:21:08;;;;;;;5.72;5.20;;;;;;;;;;5015088;28;20440;-88
2022/10/10 17:23:34;;;;;;;6.35;5.65;;;;;;;;;;5015386;28;20463;-88
2022/10/10 17:26:00;;;;;;;6.13;5.63;;;;;;;;;;5014337;28;20862;-88
2022/10/10 17:28:26;;;;;;;5.77;5.27;;;;;;;;;;5013188;28;20388;-88
2022/10/10 17:30:52;;;;;;;6.93;4.75;;;;;;;;;;5014636;28;20396;-90
2022/10/10 17:33:19;;;;;;;6.68;4.80;;;;;;;;;;5015030;28;20523;-88
2022/10/10 17:35:50;;;;;;;5.63;4.80;;;;;;;;;;5011234;28;20484;-88
2022/10/10 17:38:18;;;;;;;5.18;4.68;;;;;;;;;;5008870;28;20396;-88
2022/10/10 17:40:44;;;;;;;6.10;5.50;;;;;;;;;;4997661;28;20408;-88
2022/10/10 17:43:10;;;;;;;6.28;5.68;;;;;;;;;;5011404;28;20498;-89
2022/10/10 17:45:38;;;;;;;7.57;6.00;;;;;;;;;;5014561;28;20414;-90
2022/10/10 17:48:08;;;;;;;7.47;6.13;;;;;;;;;;5011390;28;20444;-89
2022/10/10 17:50:35;;;;;;;7.10;6.03;;;;;;;;;;5014572;28;20381;-91
2022/10/10 17:53:01;;;;;;;9.38;5.75;;;;;;;;;;5013403;28;20862;-91
2022/10/10 17:55:27;;;;;;;6.68;6.07;;;;;;;;;;5000220;28;20831;-91
2022/10/10 17:57:53;;;;;;;6.47;5.93;;;;;;;;;;5010599;28;20393;-90
2022/10/10 18:00:19;;;;;;;6.82;5.75;;;;;;;;;;4996492;28;20910;-92
2022/10/10 18:02:45;;;;;;;6.57;5.70;;;;;;;;;;5014207;28;20455;-91
2022/10/10 18:05:11;;;;;;;7.45;5.50;;;;;;;;;;4996901;28;20381;-91
2022/10/10 18:07:37;;;;;;;6.20;5.10;;;;;;;;;;5014442;28;20909;-90
2022/10/10 18:10:03;;;;;;;6.97;6.13;;;;;;;;;;5014302;28;20391;-90
2022/10/10 18:12:29;;;;;;;7.45;6.65;;;;;;;;;;5014172;28;20473;-91
2022/10/10 18:14:56;;;;;;;6.60;6.00;;;;;;;;;;5014229;28;20874;-90
2022/10/10 18:17:22;;;;;;;7.32;6.50;;;;;;;;;;4996567;28;20893;-90
2022/10/10 18:19:48;;;;;;;7.43;6.72;;;;;;;;;;4996618;28;20413;-91
2022/10/10 18:22:14;;;;;;;5.97;5.38;;;;;;;;;;5014009;28;20878;-91
2022/10/10 18:24:40;;;;;;;7.20;6.60;;;;;;;;;;5013391;28;20373;-91
2022/10/10 18:27:06;;;;;;;7.90;6.70;;;;;;;;;;4995880;28;20439;-90
2022/10/10 18:29:32;;;;;;;8.95;6.40;;;;;;;;;;5013889;28;20471;-92
2022/10/10 18:31:58;;;;;;;8.02;7.32;;;;;;;;;;5013572;28;20380;-91
2022/10/10 18:34:24;;;;;;;7.97;6.45;;;;;;;;;;4984554;28;20392;-90
2022/10/10 18:36:50;;;;;;;7.70;6.93;;;;;;;;;;5009346;28;20397;-92
2022/10/10 18:39:18;;;;;;;9.27;8.48;;;;;;;;;;4993899;28;20397;-91
2022/10/10 18:41:45;;;;;;;10.40;9.50;;;;;;;;;;4988791;28;20459;-89
2022/10/10 18:44:12;;;;;;;10.87;9.97;;;;;;;;;;5013418;28;20720;-90
2022/10/10 18:46:38;;;;;;;10.02;9.00;;;;;;;;;;5012240;28;20377;-89